Time;durP1;ratioP1;P1;durP2;ratioP2;P2;SDS_P1;SDS_P2;PMS_P1;PMS_P2;Temp;Humidity;BMP_temperature;BMP_pressure;BME280_temperature;BME280_humidity;BME280_pressure;Samples;Min_cycle;Max_cycle;Signal;HPM_P1;HPM_P2
2022/10/10 00:02:16;;;;;;;9.47;7.83;;;12.70;1.00;;;;;;5012295;28;20487;-65
2022/10/10 00:04:42;;;;;;;7.70;6.90;;;12.70;1.00;;;;;;5012628;28;20215;-65
2022/10/10 00:07:08;;;;;;;10.40;6.93;;;12.70;1.00;;;;;;4995086;28;20594;-64
2022/10/10 00:09:33;;;;;;;8.37;7.10;;;12.70;1.00;;;;;;5012456;28;20450;-64
2022/10/10 00:11:59;;;;;;;10.40;7.73;;;12.70;1.00;;;;;;5011787;28;20279;-64
2022/10/10 00:14:25;;;;;;;9.40;7.10;;;12.80;1.00;;;;;;5011967;28;20210;-64
2022/10/10 00:16:51;;;;;;;8.70;7.80;;;12.80;1.00;;;;;;5011659;28;20201;-64
2022/10/10 00:19:16;;;;;;;8.90;6.90;;;12.70;4.80;;;;;;5012191;28;20180;-62
2022/10/10 00:21:43;;;;;;;9.43;6.80;;;12.70;1.00;;;;;;5012081;28;20625;-62
2022/10/10 00:24:09;;;;;;;10.13;7.13;;;12.60;3.00;;;;;;5012300;28;20164;-63
2022/10/10 00:26:35;;;;;;;9.37;7.60;;;12.60;96.10;;;;;;5011954;28;20906;-62
2022/10/10 00:29:00;;;;;;;8.60;7.80;;;12.50;99.90;;;;;;5012154;28;20196;-63
2022/10/10 00:31:26;;;;;;;8.50;7.57;;;12.50;99.90;;;;;;5010986;28;20262;-62
2022/10/10 00:33:52;;;;;;;7.83;6.97;;;12.60;99.90;;;;;;5012051;28;20207;-63
2022/10/10 00:36:19;;;;;;;8.07;7.10;;;12.50;99.90;;;;;;5011749;28;20794;-63
2022/10/10 00:38:45;;;;;;;8.73;7.00;;;12.50;99.90;;;;;;5012040;28;20173;-63
2022/10/10 00:41:11;;;;;;;10.10;9.03;;;12.40;99.90;;;;;;5010633;28;20872;-63
2022/10/10 00:43:37;;;;;;;8.43;7.30;;;12.40;99.90;;;;;;5011814;28;20477;-63
2022/10/10 00:46:03;;;;;;;9.20;7.93;;;12.40;1.00;;;;;;5010068;28;20480;-63
2022/10/10 00:48:44;;;;;;;8.70;7.27;;;12.50;1.00;;;;;;5011902;28;20495;-63
2022/10/10 00:51:15;;;;;;;17.43;7.90;;;12.50;99.90;;;;;;5010821;28;20246;-64
2022/10/10 00:53:49;;;;;;;15.33;8.00;;;12.50;1.00;;;;;;5012009;28;20457;-64
2022/10/10 00:56:18;;;;;;;16.63;8.73;;;12.50;1.00;;;;;;5011825;28;20535;-63
2022/10/10 00:58:48;;;;;;;17.20;8.07;;;12.60;1.00;;;;;;5011757;28;20415;-63
2022/10/10 01:01:14;;;;;;;12.93;8.03;;;12.70;99.90;;;;;;5000395;28;20416;-65
2022/10/10 01:03:40;;;;;;;14.10;7.90;;;12.80;99.90;;;;;;4991942;28;20436;-64
2022/10/10 01:06:06;;;;;;;8.50;7.17;;;12.80;99.90;;;;;;4991780;28;20177;-63
2022/10/10 01:08:32;;;;;;;10.23;8.40;;;12.80;99.90;;;;;;4992055;28;20169;-64
2022/10/10 01:11:19;;;;;;;18.30;8.97;;;12.90;99.90;;;;;;4991150;28;20224;-64
2022/10/10 01:14:26;;;;;;;15.57;8.07;;;12.90;99.90;;;;;;4992190;28;20595;-64
2022/10/10 01:16:57;;;;;;;22.23;8.37;;;12.90;99.90;;;;;;4992099;28;21009;-64
2022/10/10 01:19:23;;;;;;;9.60;8.30;;;12.80;99.90;;;;;;4974045;28;20412;-64
2022/10/10 01:22:13;;;;;;;18.43;7.93;;;12.90;99.90;;;;;;4991218;28;20539;-63
2022/10/10 01:24:38;;;;;;;14.87;7.63;;;12.90;99.90;;;;;;4991492;28;20173;-64
2022/10/10 01:27:10;;;;;;;9.23;8.17;;;12.90;99.90;;;;;;4991660;28;20434;-64
2022/10/10 01:30:05;;;;;;;11.93;8.00;;;12.80;99.90;;;;;;4991095;28;20207;-64
2022/10/10 01:32:42;;;;;;;29.10;8.80;;;12.80;99.90;;;;;;4991094;28;20663;-64
2022/10/10 01:35:17;;;;;;;14.80;9.20;;;12.80;99.90;;;;;;4991165;28;20816;-63
2022/10/10 01:37:57;;;;;;;14.03;8.33;;;12.80;99.90;;;;;;4991697;28;20392;-63
2022/10/10 01:40:36;;;;;;;9.87;8.23;;;12.80;1.00;;;;;;4990687;28;20405;-64
2022/10/10 01:43:05;;;;;;;12.57;8.60;;;12.80;1.00;;;;;;4991103;28;20530;-64
2022/10/10 01:45:30;;;;;;;14.17;8.63;;;12.80;1.00;;;;;;4989373;28;20695;-64
2022/10/10 01:48:01;;;;;;;9.70;8.60;;;12.80;1.00;;;;;;4991214;28;20491;-64
2022/10/10 01:50:28;;;;;;;12.40;8.37;;;12.80;1.00;;;;;;4990574;28;20742;-64
2022/10/10 01:53:10;;;;;;;9.27;8.37;;;12.70;1.00;;;;;;4990760;28;20455;-64
2022/10/10 01:55:54;;;;;;;9.90;8.30;;;12.70;1.00;;;;;;4991013;28;20448;-64
2022/10/10 01:58:46;;;;;;;9.83;8.17;;;12.60;1.00;;;;;;4990802;28;20471;-64
2022/10/10 02:01:30;;;;;;;8.87;7.97;;;12.60;1.00;;;;;;4989590;28;20948;-64
2022/10/10 02:04:16;;;;;;;11.67;8.10;;;12.60;1.00;;;;;;4990647;28;20578;-64
2022/10/10 02:06:54;;;;;;;16.13;9.57;;;12.60;1.00;;;;;;4990878;28;20400;-64
2022/10/10 02:09:27;;;;;;;15.87;10.90;;;12.60;1.00;;;;;;4990746;28;20415;-64
2022/10/10 02:11:55;;;;;;;12.27;9.50;;;12.70;1.00;;;;;;4989968;28;20873;-63
2022/10/10 02:14:25;;;;;;;9.37;8.47;;;12.60;1.00;;;;;;4990293;28;20522;-64
2022/10/10 02:16:54;;;;;;;14.50;8.10;;;12.60;1.00;;;;;;4990599;28;20452;-62
2022/10/10 02:19:21;;;;;;;12.73;9.40;;;12.50;1.00;;;;;;4990125;28;20742;-63
2022/10/10 02:21:50;;;;;;;8.90;8.00;;;12.60;1.00;;;;;;4989653;28;20396;-64
2022/10/10 02:24:18;;;;;;;13.00;8.57;;;12.50;1.00;;;;;;4990432;28;20404;-63
2022/10/10 02:26:51;;;;;;;19.20;9.47;;;12.50;1.00;;;;;;4990254;28;20423;-63
2022/10/10 02:29:25;;;;;;;11.43;8.97;;;12.50;1.00;;;;;;4990465;28;20919;-63
2022/10/10 02:32:19;;;;;;;10.13;8.73;;;12.40;1.00;;;;;;4989934;28;20491;-63
2022/10/10 02:34:50;;;;;;;10.90;9.57;;;12.40;1.00;;;;;;4989872;28;20396;-63
2022/10/10 02:37:17;;;;;;;15.23;10.33;;;12.50;1.00;;;;;;4990285;28;20415;-63
2022/10/10 02:39:48;;;;;;;13.00;9.37;;;12.50;1.00;;;;;;4989629;28;20490;-64
2022/10/10 02:42:16;;;;;;;18.10;9.50;;;12.50;1.00;;;;;;4989252;28;20435;-64
2022/10/10 02:44:44;;;;;;;13.23;10.33;;;12.50;1.00;;;;;;4988397;28;21012;-64
2022/10/10 02:47:10;;;;;;;21.40;11.03;;;12.60;1.00;;;;;;4990300;28;20797;-63
2022/10/10 02:49:36;;;;;;;16.03;9.80;;;12.60;1.00;;;;;;4972555;28;20443;-64
2022/10/10 02:52:02;;;;;;;14.23;9.13;;;12.60;1.00;;;;;;4989230;28;20247;-64
2022/10/10 02:54:28;;;;;;;11.07;9.97;;;12.60;1.00;;;;;;4989832;28;20197;-64
2022/10/10 02:56:53;;;;;;;10.77;9.60;;;12.50;1.00;;;;;;4990029;28;20867;-64
2022/10/10 02:59:19;;;;;;;13.57;9.50;;;12.50;1.00;;;;;;4990018;28;20176;-63
2022/10/10 03:01:45;;;;;;;16.23;9.87;;;12.50;1.00;;;;;;4988808;28;20173;-63
2022/10/10 03:04:11;;;;;;;12.20;10.33;;;12.50;1.00;;;;;;4990054;28;20177;-63
2022/10/10 03:06:37;;;;;;;11.97;10.87;;;12.50;1.00;;;;;;4989945;28;20196;-64
2022/10/10 03:09:04;;;;;;;11.83;10.70;;;12.50;1.00;;;;;;4990075;28;20185;-64
2022/10/10 03:11:30;;;;;;;12.20;9.60;;;12.50;1.00;;;;;;4989245;28;20995;-64
2022/10/10 03:13:55;;;;;;;11.70;10.50;;;12.50;1.00;;;;;;4990152;28;20534;-64
2022/10/10 03:16:21;;;;;;;13.50;10.17;;;12.50;1.00;;;;;;4990140;28;20204;-64
2022/10/10 03:18:47;;;;;;;13.97;9.80;;;12.50;1.00;;;;;;4989938;28;20255;-64
2022/10/10 03:21:13;;;;;;;14.03;10.77;;;12.50;1.00;;;;;;4989482;28;20661;-64
2022/10/10 03:23:38;;;;;;;10.40;9.13;;;12.50;1.00;;;;;;4990101;28;20193;-64
2022/10/10 03:26:04;;;;;;;16.87;10.23;;;12.50;1.00;;;;;;4989638;28;20181;-64
2022/10/10 03:28:30;;;;;;;27.43;11.67;;;12.50;1.00;;;;;;4989885;28;20189;-64
2022/10/10 03:30:56;;;;;;;34.70;12.37;;;12.50;1.00;;;;;;4988789;28;20496;-64
2022/10/10 03:33:22;;;;;;;10.87;9.77;;;12.50;1.00;;;;;;4990028;28;20569;-64
2022/10/10 03:35:47;;;;;;;13.50;10.40;;;12.40;1.00;;;;;;4989548;28;20205;-63
2022/10/10 03:38:13;;;;;;;21.33;11.57;;;12.40;1.00;;;;;;4989826;28;20412;-64
2022/10/10 03:40:41;;;;;;;12.50;10.10;;;12.50;1.00;;;;;;4988947;28;20222;-63
2022/10/10 03:43:08;;;;;;;18.97;11.17;;;12.40;1.00;;;;;;4990066;28;20992;-63
2022/10/10 03:45:34;;;;;;;10.77;9.57;;;12.40;1.00;;;;;;4988316;28;20416;-63
2022/10/10 03:48:00;;;;;;;16.00;9.70;;;12.40;1.00;;;;;;4990089;28;20423;-64
2022/10/10 03:50:26;;;;;;;10.80;9.53;;;12.40;1.00;;;;;;4989487;28;20555;-64
2022/10/10 03:52:51;;;;;;;18.27;10.90;;;12.40;1.00;;;;;;4990781;28;20240;-64
2022/10/10 03:55:17;;;;;;;18.47;12.00;;;12.40;1.00;;;;;;4993540;28;20674;-64
2022/10/10 03:57:43;;;;;;;15.80;11.40;;;12.40;1.00;;;;;;4993799;28;20633;-64
2022/10/10 04:00:10;;;;;;;17.30;10.37;;;12.40;1.00;;;;;;4992988;28;20412;-64
2022/10/10 04:02:35;;;;;;;13.33;10.13;;;12.40;1.00;;;;;;4992892;28;20215;-62
2022/10/10 04:05:02;;;;;;;19.63;12.20;;;12.40;1.00;;;;;;4993591;28;20485;-64
2022/10/10 04:07:28;;;;;;;16.60;13.33;;;12.30;1.00;;;;;;4993322;28;20173;-64
2022/10/10 04:09:53;;;;;;;24.13;13.00;;;12.40;1.00;;;;;;4993168;28;20491;-64
2022/10/10 04:12:19;;;;;;;29.33;12.83;;;12.40;1.00;;;;;;4992470;28;20437;-64
2022/10/10 04:14:45;;;;;;;18.40;11.40;;;12.40;1.00;;;;;;4992026;28;20187;-64
2022/10/10 04:17:11;;;;;;;15.03;11.37;;;12.40;1.00;;;;;;4992768;28;20176;-65
2022/10/10 04:19:36;;;;;;;12.73;11.40;;;12.40;1.00;;;;;;4989636;28;20484;-66
2022/10/10 04:22:02;;;;;;;15.60;11.37;;;12.40;1.00;;;;;;5006428;28;20253;-64
2022/10/10 04:24:28;;;;;;;19.63;11.13;;;12.40;1.00;;;;;;5017324;28;20247;-65
2022/10/10 04:26:54;;;;;;;14.30;10.70;;;12.40;1.00;;;;;;5031682;28;20450;-64
2022/10/10 04:29:20;;;;;;;22.37;12.20;;;12.50;1.00;;;;;;5031465;28;20233;-65
2022/10/10 04:31:45;;;;;;;17.80;12.03;;;12.50;1.00;;;;;;5029915;28;20179;-65
2022/10/10 04:34:11;;;;;;;24.13;11.93;;;12.40;1.00;;;;;;5031258;28;20780;-65
2022/10/10 04:36:37;;;;;;;26.60;13.80;;;12.40;1.00;;;;;;5018549;28;20204;-65
2022/10/10 04:39:03;;;;;;;19.60;12.67;;;12.40;1.00;;;;;;5023010;28;20186;-66
2022/10/10 04:41:28;;;;;;;25.70;13.03;;;12.40;1.00;;;;;;5030407;28;20168;-64
2022/10/10 04:43:54;;;;;;;20.87;11.70;;;12.40;1.00;;;;;;5031789;28;20203;-65
2022/10/10 04:46:20;;;;;;;21.10;10.63;;;12.40;1.00;;;;;;5030116;28;20176;-65
2022/10/10 04:48:46;;;;;;;26.23;12.97;;;12.40;1.00;;;;;;5032088;28;20179;-65
2022/10/10 04:51:12;;;;;;;16.83;12.10;;;12.30;1.00;;;;;;5030937;28;20182;-65
2022/10/10 04:53:37;;;;;;;16.80;11.83;;;12.30;1.00;;;;;;5032398;28;20261;-65
2022/10/10 04:56:03;;;;;;;18.87;12.37;;;12.30;1.00;;;;;;5031265;28;20680;-65
2022/10/10 04:58:29;;;;;;;28.17;14.07;;;12.30;1.00;;;;;;5031458;28;20187;-65
2022/10/10 05:00:55;;;;;;;25.93;14.40;;;12.30;1.00;;;;;;5029823;28;20184;-65
2022/10/10 05:03:22;;;;;;;26.60;13.30;;;12.30;1.00;;;;;;5030603;28;20430;-65
2022/10/10 05:05:48;;;;;;;28.77;15.17;;;12.40;1.00;;;;;;5031075;28;20184;-65
2022/10/10 05:08:15;;;;;;;43.77;16.83;;;12.40;1.00;;;;;;5030704;28;20422;-64
2022/10/10 05:10:41;;;;;;;50.07;16.20;;;12.40;1.00;;;;;;5028118;28;20505;-65
2022/10/10 05:13:10;;;;;;;24.43;14.50;;;12.40;1.00;;;;;;5030474;28;20514;-65
2022/10/10 05:15:37;;;;;;;39.07;14.30;;;12.40;1.00;;;;;;5023022;28;20203;-65
2022/10/10 05:18:03;;;;;;;27.57;14.50;;;12.40;1.00;;;;;;5026031;28;20434;-64
2022/10/10 05:20:29;;;;;;;28.83;15.33;;;12.40;1.00;;;;;;5026510;28;20434;-65
2022/10/10 05:22:55;;;;;;;48.33;15.57;;;12.40;1.00;;;;;;5025814;28;20431;-65
2022/10/10 05:25:21;;;;;;;38.37;17.40;;;12.50;1.00;;;;;;5020939;28;20434;-65
2022/10/10 05:27:46;;;;;;;31.70;16.73;;;12.40;1.00;;;;;;5019280;28;20283;-64
2022/10/10 05:30:13;;;;;;;34.37;16.23;;;12.40;1.00;;;;;;5024967;28;20198;-65
2022/10/10 05:32:38;;;;;;;48.77;18.40;;;12.50;1.00;;;;;;5020729;28;20639;-67
2022/10/10 05:35:05;;;;;;;30.57;17.10;;;12.40;1.00;;;;;;5014509;28;20595;-67
2022/10/10 05:37:31;;;;;;;31.33;15.90;;;12.40;1.00;;;;;;5018096;28;20211;-67
2022/10/10 05:39:57;;;;;;;33.70;13.90;;;12.40;1.00;;;;;;5017392;28;20430;-66
2022/10/10 05:42:23;;;;;;;39.10;16.60;;;12.40;1.00;;;;;;5014091;28;20752;-66
2022/10/10 05:44:48;;;;;;;34.87;14.90;;;12.60;1.00;;;;;;5026228;28;20253;-66
2022/10/10 05:47:14;;;;;;;36.27;15.80;;;12.80;1.00;;;;;;5026321;28;20174;-66
2022/10/10 05:49:40;;;;;;;28.70;15.47;;;13.00;1.00;;;;;;5026649;28;21046;-66
2022/10/10 05:52:06;;;;;;;28.93;14.70;;;13.10;1.00;;;;;;5023451;28;20257;-66
2022/10/10 05:54:32;;;;;;;31.50;15.13;;;13.00;1.00;;;;;;5025447;28;20180;-65
2022/10/10 05:56:57;;;;;;;61.67;16.50;;;12.90;1.00;;;;;;5028276;28;20465;-66
2022/10/10 05:59:23;;;;;;;36.70;15.17;;;12.80;1.00;;;;;;5027554;28;20678;-66
2022/10/10 06:01:49;;;;;;;61.13;19.03;;;12.80;1.00;;;;;;5022709;28;20183;-64
2022/10/10 06:04:15;;;;;;;345.47;41.03;;;12.80;1.00;;;;;;5025691;28;20179;-67
2022/10/10 06:06:40;;;;;;;120.07;24.53;;;12.70;1.00;;;;;;5027165;28;20191;-66
2022/10/10 06:09:06;;;;;;;96.87;21.57;;;12.70;1.00;;;;;;5027117;28;20539;-67
2022/10/10 06:11:32;;;;;;;47.93;17.80;;;12.70;1.00;;;;;;5025919;28;20191;-65
2022/10/10 06:13:58;;;;;;;47.33;19.13;;;12.70;1.00;;;;;;5016549;28;20192;-66
2022/10/10 06:16:25;;;;;;;56.23;17.07;;;12.70;1.00;;;;;;5020292;28;20528;-66
2022/10/10 06:18:52;;;;;;;71.23;18.10;;;12.70;1.00;;;;;;5023542;28;20167;-68
2022/10/10 06:21:18;;;;;;;25.30;13.57;;;12.70;1.00;;;;;;5024665;28;20444;-65
2022/10/10 06:23:44;;;;;;;37.97;14.83;;;12.70;1.00;;;;;;5022021;28;20431;-66
2022/10/10 06:26:10;;;;;;;119.27;26.13;;;12.70;1.00;;;;;;5027181;28;20445;-67
2022/10/10 06:28:36;;;;;;;37.77;14.80;;;12.70;1.00;;;;;;5026697;28;20434;-67
2022/10/10 06:31:05;;;;;;;54.23;16.67;;;12.70;1.00;;;;;;5018934;28;20818;-67
2022/10/10 06:33:31;;;;;;;67.27;17.97;;;12.70;1.00;;;;;;5027589;28;20213;-66
2022/10/10 06:35:57;;;;;;;64.53;18.10;;;12.70;1.00;;;;;;5025592;28;20521;-67
2022/10/10 06:38:23;;;;;;;43.57;16.17;;;12.60;1.00;;;;;;5024990;28;20415;-65
2022/10/10 06:40:49;;;;;;;63.33;17.70;;;12.60;1.00;;;;;;5020738;28;20523;-66
2022/10/10 06:43:16;;;;;;;44.83;14.80;;;12.60;1.00;;;;;;5019250;28;20458;-65
2022/10/10 06:45:45;;;;;;;41.17;14.30;;;12.70;1.00;;;;;;5023865;28;20200;-67
2022/10/10 06:48:12;;;;;;;28.60;14.37;;;12.70;1.00;;;;;;5019365;28;20796;-68
2022/10/10 06:50:38;;;;;;;25.90;15.97;;;12.70;1.00;;;;;;5026032;28;20525;-67
2022/10/10 06:53:04;;;;;;;42.03;15.60;;;12.80;1.00;;;;;;5014962;28;21045;-66
2022/10/10 06:55:30;;;;;;;25.77;14.83;;;12.80;1.00;;;;;;5023460;28;20196;-66
2022/10/10 06:57:56;;;;;;;36.87;13.43;;;12.80;1.00;;;;;;5028777;28;20438;-67
2022/10/10 07:00:22;;;;;;;24.90;13.33;;;12.80;1.00;;;;;;5028087;28;20404;-67
2022/10/10 07:02:48;;;;;;;42.07;15.30;;;12.80;1.00;;;;;;5028791;28;20464;-67
2022/10/10 07:05:15;;;;;;;30.37;14.53;;;12.90;1.00;;;;;;5029102;28;20450;-66
2022/10/10 07:07:41;;;;;;;29.37;14.83;;;12.90;1.00;;;;;;5028941;28;20179;-67
2022/10/10 07:10:09;;;;;;;41.60;14.80;;;13.00;1.00;;;;;;5028306;28;20898;-67
2022/10/10 07:12:35;;;;;;;78.10;17.60;;;12.90;1.00;;;;;;5027736;28;20434;-67
2022/10/10 07:15:00;;;;;;;22.40;13.93;;;13.00;1.00;;;;;;5027986;28;20778;-67
2022/10/10 07:17:26;;;;;;;30.47;13.53;;;13.00;1.00;;;;;;5028677;28;20171;-67
2022/10/10 07:19:52;;;;;;;88.07;25.23;;;13.10;1.00;;;;;;5028452;28;20237;-66
2022/10/10 07:22:18;;;;;;;62.63;17.50;;;13.10;1.00;;;;;;5028180;28;20252;-67
2022/10/10 07:24:44;;;;;;;65.67;17.27;;;13.20;1.00;;;;;;5028811;28;20286;-67
2022/10/10 07:27:09;;;;;;;117.13;22.20;;;13.20;1.00;;;;;;5030886;28;20192;-69
2022/10/10 07:29:35;;;;;;;72.53;19.13;;;13.20;1.00;;;;;;5032765;28;20532;-67
2022/10/10 07:32:01;;;;;;;78.37;19.23;;;13.20;1.00;;;;;;5032088;28;20327;-67
2022/10/10 07:34:26;;;;;;;57.87;18.30;;;13.20;1.00;;;;;;5032369;28;20593;-65
2022/10/10 07:36:52;;;;;;;51.47;16.90;;;13.30;1.00;;;;;;5032322;28;20572;-67
2022/10/10 07:39:22;;;;;;;46.80;17.40;;;13.40;1.00;;;;;;5032919;28;20164;-67
2022/10/10 07:41:49;;;;;;;71.30;19.30;;;13.40;1.00;;;;;;5032016;28;20186;-68
2022/10/10 07:44:15;;;;;;;29.90;15.90;;;13.50;1.00;;;;;;5032174;28;20430;-66
2022/10/10 07:46:41;;;;;;;72.70;19.60;;;13.50;1.00;;;;;;5031498;28;20417;-65
2022/10/10 07:49:07;;;;;;;95.87;19.97;;;13.50;1.00;;;;;;5032196;28;20410;-68
2022/10/10 07:51:33;;;;;;;72.77;18.47;;;13.60;1.00;;;;;;5031864;28;20198;-66
2022/10/10 07:53:59;;;;;;;47.10;17.30;;;13.60;1.00;;;;;;5031924;28;20793;-68
2022/10/10 07:56:25;;;;;;;61.23;20.17;;;13.70;1.00;;;;;;5031998;28;20364;-71
2022/10/10 07:58:50;;;;;;;47.17;17.73;;;13.80;1.00;;;;;;5032137;28;20292;-67
2022/10/10 08:01:16;;;;;;;38.23;16.80;;;13.80;1.00;;;;;;5031072;28;20172;-68
2022/10/10 08:03:42;;;;;;;29.43;14.70;;;13.90;1.00;;;;;;5032301;28;20571;-68
2022/10/10 08:06:11;;;;;;;60.07;16.80;;;13.90;1.00;;;;;;5031639;28;20497;-68
2022/10/10 08:08:37;;;;;;;58.53;18.43;;;14.00;1.00;;;;;;5031942;28;20164;-68
2022/10/10 08:11:05;;;;;;;141.77;28.00;;;14.10;99.90;;;;;;5031043;28;20849;-68
2022/10/10 08:13:30;;;;;;;32.70;15.73;;;14.10;99.90;;;;;;5031726;28;20274;-68
2022/10/10 08:15:56;;;;;;;31.70;16.37;;;14.10;99.90;;;;;;5031968;28;20547;-67
2022/10/10 08:18:22;;;;;;;29.17;16.30;;;14.10;99.90;;;;;;5030581;28;20191;-66
2022/10/10 08:20:58;;;;;;;33.93;14.97;;;14.20;99.90;;;;;;5031410;28;20168;-66
2022/10/10 08:23:24;;;;;;;29.30;15.40;;;14.20;99.90;;;;;;5032115;28;20187;-67
2022/10/10 08:25:49;;;;;;;66.17;20.17;;;14.20;99.90;;;;;;5031558;28;20413;-66
2022/10/10 08:28:15;;;;;;;23.93;15.17;;;14.20;99.90;;;;;;5031962;28;20222;-67
2022/10/10 08:30:40;;;;;;;18.87;14.87;;;14.30;99.90;;;;;;5031330;28;20192;-67
2022/10/10 08:33:06;;;;;;;17.70;14.40;;;14.30;99.90;;;;;;5032097;28;20184;-68
2022/10/10 08:35:37;;;;;;;22.97;16.50;;;14.40;99.90;;;;;;5031865;28;20199;-67
2022/10/10 08:38:03;;;;;;;62.47;19.43;;;14.50;99.90;;;;;;5030942;28;20203;-67
2022/10/10 08:40:29;;;;;;;37.37;16.50;;;14.60;99.90;;;;;;5031468;28;20403;-67
2022/10/10 08:42:59;;;;;;;30.60;16.77;;;14.60;99.90;;;;;;5032371;28;20188;-67
2022/10/10 08:45:27;;;;;;;31.70;16.10;;;14.60;99.90;;;;;;5031661;28;20634;-66
2022/10/10 08:48:10;;;;;;;45.50;17.97;;;14.80;99.90;;;;;;5031485;28;20913;-67
2022/10/10 08:50:46;;;;;;;41.63;18.90;;;14.90;99.90;;;;;;5030989;28;20398;-67
2022/10/10 08:53:21;;;;;;;70.33;19.87;;;14.90;94.20;;;;;;5031529;28;20480;-68
2022/10/10 08:55:48;;;;;;;35.10;17.33;;;15.00;18.50;;;;;;5031541;28;20445;-67
2022/10/10 08:58:22;;;;;;;30.53;16.50;;;15.10;1.00;;;;;;5031718;28;20407;-67
2022/10/10 09:01:18;;;;;;;33.10;16.33;;;15.20;1.00;;;;;;5030408;28;20406;-68
2022/10/10 09:04:12;;;;;;;100.13;21.90;;;15.20;1.00;;;;;;5022995;28;20504;-68
2022/10/10 09:07:03;;;;;;;92.47;25.30;;;15.30;1.00;;;;;;4999662;28;20762;-68
2022/10/10 09:09:53;;;;;;;26.83;15.80;;;15.40;1.00;;;;;;5031615;28;20406;-68
2022/10/10 09:12:40;;;;;;;27.43;16.00;;;15.40;1.00;;;;;;5031180;28;20446;-68
2022/10/10 09:15:42;;;;;;;29.60;15.63;;;15.30;1.00;;;;;;5030677;28;20398;-68
2022/10/10 09:18:40;;;;;;;32.97;17.20;;;15.30;1.00;;;;;;5026689;28;20776;-68
2022/10/10 09:21:24;;;;;;;28.43;15.63;;;15.30;1.00;;;;;;4975459;28;20425;-67
2022/10/10 09:23:58;;;;;;;26.33;16.67;;;15.40;1.00;;;;;;5031279;28;20411;-67
2022/10/10 09:26:28;;;;;;;25.60;17.70;;;15.50;1.00;;;;;;5030623;28;20440;-68
2022/10/10 09:29:02;;;;;;;23.90;15.93;;;15.40;1.00;;;;;;5030793;28;20514;-67
2022/10/10 09:31:37;;;;;;;26.70;16.20;;;15.40;1.00;;;;;;5029954;28;20398;-68
2022/10/10 09:34:04;;;;;;;23.80;15.93;;;15.40;1.00;;;;;;5031036;28;20758;-68
2022/10/10 09:36:35;;;;;;;34.93;16.23;;;15.40;1.00;;;;;;5030653;28;20446;-67
2022/10/10 09:39:12;;;;;;;25.83;15.00;;;15.50;1.00;;;;;;5030508;28;20422;-68
2022/10/10 09:41:49;;;;;;;27.00;14.40;;;15.50;1.00;;;;;;5029655;28;20567;-67
2022/10/10 09:44:18;;;;;;;24.73;15.90;;;15.60;1.00;;;;;;5030909;28;20391;-67
2022/10/10 09:46:44;;;;;;;55.67;17.00;;;15.60;1.00;;;;;;5029927;28;20433;-66
2022/10/10 09:49:15;;;;;;;59.30;16.50;;;15.70;1.00;;;;;;5030204;28;20804;-67
2022/10/10 09:51:42;;;;;;;27.73;14.47;;;15.70;1.00;;;;;;5029746;28;20183;-67
2022/10/10 09:54:08;;;;;;;50.97;16.40;;;15.70;1.00;;;;;;5030589;28;20468;-68
2022/10/10 09:56:42;;;;;;;52.07;17.10;;;15.70;1.00;;;;;;5030484;28;20756;-68
2022/10/10 09:59:36;;;;;;;108.23;26.40;;;15.70;1.00;;;;;;5030237;28;20406;-70
2022/10/10 10:02:09;;;;;;;88.20;19.87;;;15.60;1.00;;;;;;5029947;28;20426;-67
2022/10/10 10:04:35;;;;;;;195.03;27.80;;;15.60;1.00;;;;;;5030085;28;20449;-67
2022/10/10 10:07:25;;;;;;;69.10;19.53;;;15.70;1.00;;;;;;5030666;28;20478;-67
2022/10/10 10:09:54;;;;;;;84.97;18.40;;;15.60;1.00;;;;;;5029473;28;20175;-66
2022/10/10 10:12:38;;;;;;;37.20;16.23;;;15.60;1.00;;;;;;5029686;28;20434;-67
2022/10/10 10:15:15;;;;;;;46.13;17.47;;;15.60;1.00;;;;;;5029311;28;20418;-67
2022/10/10 10:17:41;;;;;;;25.33;13.83;;;15.60;1.00;;;;;;5030404;28;20898;-66
2022/10/10 10:20:37;;;;;;;18.57;13.10;;;15.70;1.00;;;;;;5029583;28;20406;-67
2022/10/10 10:23:03;;;;;;;36.37;14.87;;;15.80;1.00;;;;;;5010814;28;20209;-65
2022/10/10 10:25:34;;;;;;;46.23;15.50;;;15.80;1.00;;;;;;5031254;28;20485;-67
2022/10/10 10:28:09;;;;;;;48.63;16.77;;;15.90;1.00;;;;;;5030432;28;20172;-68
2022/10/10 10:30:37;;;;;;;67.30;18.40;;;16.00;1.00;;;;;;5029541;28;20551;-66
2022/10/10 10:33:13;;;;;;;83.47;20.50;;;16.10;99.90;;;;;;5029640;28;20434;-67
2022/10/10 10:35:48;;;;;;;45.40;15.03;;;16.20;99.90;;;;;;5029553;28;20473;-67
2022/10/10 10:38:22;;;;;;;19.37;13.37;;;16.30;1.00;;;;;;5029975;28;20420;-67
2022/10/10 10:41:16;;;;;;;30.33;15.60;;;16.40;1.00;;;;;;5028920;28;20453;-67
2022/10/10 10:44:08;;;;;;;22.93;13.60;;;16.50;1.00;;;;;;5029924;28;20415;-66
2022/10/10 10:46:56;;;;;;;24.03;13.40;;;16.60;99.90;;;;;;5029487;28;20406;-68
2022/10/10 10:49:37;;;;;;;33.50;15.03;;;16.70;99.90;;;;;;5017069;28;20712;-67
2022/10/10 10:52:29;;;;;;;17.33;11.63;;;16.90;1.00;;;;;;5051999;22;20504;-68
2022/10/10 10:55:22;;;;;;;57.40;18.23;;;17.10;99.90;;;;;;5029560;28;20484;-70
2022/10/10 10:58:01;;;;;;;66.67;19.87;;;17.00;1.00;;;;;;5029584;28;20439;-69
2022/10/10 11:00:36;;;;;;;19.57;12.87;;;17.00;1.00;;;;;;5028491;28;20400;-69
2022/10/10 11:03:50;;;;;;;34.93;15.63;;;17.00;1.00;;;;;;5026140;28;20922;-69
2022/10/10 11:06:48;;;;;;;72.33;16.97;;;17.10;1.00;;;;;;4979181;28;20423;-70
2022/10/10 11:09:26;;;;;;;39.20;14.60;;;17.10;1.00;;;;;;5016482;28;20538;-68
2022/10/10 11:12:16;;;;;;;59.87;16.03;;;17.10;1.00;;;;;;5016126;28;20799;-68
2022/10/10 11:15:03;;;;;;;53.13;15.70;;;17.20;99.90;;;;;;5015177;28;20439;-67
2022/10/10 11:17:41;;;;;;;18.83;13.50;;;17.30;99.90;;;;;;5015988;28;20438;-68
2022/10/10 11:20:30;;;;;;;44.40;15.40;;;17.30;99.90;;;;;;5025469;28;20441;-69
2022/10/10 11:23:29;;;;;;;55.33;16.93;;;17.30;99.90;;;;;;5036443;28;20491;-67
2022/10/10 11:26:05;;;;;;;27.17;14.27;;;17.40;99.90;;;;;;5036473;28;20929;-68
2022/10/10 11:28:39;;;;;;;17.20;12.80;;;17.40;99.90;;;;;;5025195;28;20448;-67
2022/10/10 11:31:34;;;;;;;20.53;12.23;;;17.60;1.00;;;;;;5034385;28;20418;-67
2022/10/10 11:34:13;;;;;;;20.13;12.30;;;17.50;1.00;;;;;;5030970;28;20449;-67
2022/10/10 11:36:42;;;;;;;119.57;22.27;;;17.60;1.00;;;;;;5035495;28;20493;-69
2022/10/10 11:39:16;;;;;;;37.67;13.93;;;17.60;1.00;;;;;;5030251;28;20538;-69
2022/10/10 11:42:10;;;;;;;110.27;19.40;;;17.60;1.00;;;;;;5030321;28;20406;-68
2022/10/10 11:44:44;;;;;;;22.20;13.07;;;17.60;1.00;;;;;;5024508;28;20430;-67
2022/10/10 11:47:18;;;;;;;61.17;16.03;;;17.60;1.00;;;;;;5036043;28;20406;-68
2022/10/10 11:49:56;;;;;;;29.77;11.93;;;17.50;1.00;;;;;;5025796;28;20874;-69
2022/10/10 11:52:34;;;;;;;39.27;13.80;;;17.50;1.00;;;;;;5012396;28;20554;-68
2022/10/10 11:55:05;;;;;;;26.37;12.63;;;17.50;1.00;;;;;;5015630;28;20430;-70
2022/10/10 11:58:01;;;;;;;16.03;11.37;;;17.50;1.00;;;;;;5035988;28;20422;-68
2022/10/10 12:00:28;;;;;;;15.60;12.47;;;17.50;1.00;;;;;;5034749;28;20410;-69
2022/10/10 12:02:57;;;;;;;19.73;13.13;;;17.60;1.00;;;;;;5033424;28;20484;-68
2022/10/10 12:05:26;;;;;;;30.53;12.23;;;17.70;1.00;;;;;;5018678;28;20779;-69
2022/10/10 12:07:51;;;;;;;106.33;22.87;;;17.80;1.00;;;;;;5036181;28;20402;-69
2022/10/10 12:10:22;;;;;;;62.83;17.53;;;17.80;1.00;;;;;;5035403;28;20407;-69
2022/10/10 12:12:52;;;;;;;55.97;16.77;;;17.70;1.00;;;;;;5032322;28;20278;-70
2022/10/10 12:15:34;;;;;;;18.40;12.90;;;17.60;1.00;;;;;;5005877;28;20420;-70
2022/10/10 12:18:01;;;;;;;14.10;10.93;;;17.60;1.00;;;;;;5017308;28;20496;-70
2022/10/10 12:20:26;;;;;;;19.87;13.60;;;17.50;1.00;;;;;;5017242;28;20431;-70
2022/10/10 12:23:17;;;;;;;71.13;16.77;;;17.50;99.90;;;;;;5027116;28;20451;-70
2022/10/10 12:25:45;;;;;;;34.83;14.83;;;17.50;99.90;;;;;;5021917;28;20180;-70
2022/10/10 12:28:13;;;;;;;31.53;14.87;;;17.40;99.90;;;;;;5032026;28;20414;-69
2022/10/10 12:31:05;;;;;;;77.20;15.67;;;17.30;1.00;;;;;;5030735;28;20487;-68
2022/10/10 12:33:31;;;;;;;53.57;14.83;;;17.10;1.00;;;;;;4984515;28;20451;-68
2022/10/10 12:36:17;;;;;;;26.80;12.33;;;17.10;1.00;;;;;;5028277;28;20499;-69
2022/10/10 12:39:05;;;;;;;32.70;12.90;;;17.10;99.90;;;;;;5031861;28;20202;-70
2022/10/10 12:41:46;;;;;;;30.57;13.27;;;17.20;1.00;;;;;;5014474;28;20435;-69
2022/10/10 12:44:21;;;;;;;52.07;15.53;;;17.10;99.90;;;;;;5016236;28;20467;-69
2022/10/10 12:47:13;;;;;;;19.93;12.37;;;17.10;1.00;;;;;;5010311;28;20441;-69
2022/10/10 12:49:56;;;;;;;26.03;12.90;;;17.10;1.00;;;;;;4991557;28;21200;-69
2022/10/10 12:52:31;;;;;;;32.37;13.17;;;17.10;1.00;;;;;;4991183;28;20458;-68
2022/10/10 12:55:22;;;;;;;43.67;13.00;;;17.10;1.00;;;;;;5011370;28;20431;-69
2022/10/10 12:57:51;;;;;;;29.43;13.00;;;17.10;1.00;;;;;;5019809;28;20418;-70
2022/10/10 13:00:22;;;;;;;56.60;15.83;;;17.10;1.00;;;;;;5029976;28;20493;-69